首页
METAR-TAF:

METAR-TAF

机场 :

巴斯蒂亚, 法国

纬度: 42-33N, 经度: 009-29E, 海拔: 8米

当前天气观测

该预报发布于27分钟前的18:00 UTC
风速1节,风向西转西北
温度 13°C
湿度 82%
气压 1012 hPa
能见度10公里或以上
少量云层高于3800英尺

METAR: LFKB 301800Z AUTO 29001KT 9999 FEW038 13/10 Q1012 NOSIG

时间: 20:27 (18:27 UTC)

预报

该预报发布于4小时和27分钟前的14:00 UTC
预报有效从30日的 15点(UTC)到 31日的 15点(UTC)
风速5节,风向南转南东
能见度10公里或以上
散云层高于3000英尺
多云层高于5500英尺
短暂存在
从 30日的 15点(UTC)到 30日的 17点(UTC)
散云层高于2500英尺, 塔状积云.
阵雨
成为
从 31日的 04点(UTC)到 31日的 06点(UTC)
多云层高于1200英尺
成为
从 31日的 06点(UTC)到 31日的 08点(UTC)
风速10节,风向
散云层高于2000英尺, 塔状积云.
短暂存在
从 31日的 08点(UTC)到 31日的 15点(UTC)
多云层高于1500英尺, 塔状积云.
阵雨

TAF: LFKB 301400Z 3015/3115 16005KT 9999 SCT030 BKN055 TX14/3112Z TN06/3103Z TEMPO 3015/3017 SHRA SCT025TCU BECMG 3104/3106 BKN012 BECMG 3106/3108 36010KT SCT020TCU TEMPO 3108/3115 SHRA BKN015TCU

超过4000个机场的气象观测和天气预报(METAR&TAF报告)。

可查询的气象台以黄色和红色小点在地图上表示。

将鼠标移到小点上方,可查看气象台名称。

然后点击查看天气观测和预报。

如需切换地图:点击带黑十字的绿色按钮放大地图;点击带横线的绿色按钮缩小地图;或者点击绿色箭头查看邻近地区的地图。


METAR-TAF: